Time;durP1;ratioP1;P1;durP2;ratioP2;P2;SDS_P1;SDS_P2;PMS_P1;PMS_P2;Temp;Humidity;BMP_temperature;BMP_pressure;BME280_temperature;BME280_humidity;BME280_pressure;Samples;Min_cycle;Max_cycle;Signal;HPM_P1;HPM_P2
2024/01/29 00:02:21;;;;;;;4.57;3.60;;;21.10;53.40;;;;;;5071980;28;20210;-69
2024/01/29 00:04:47;;;;;;;3.00;2.70;;;21.10;53.40;;;;;;5072121;28;20181;-70
2024/01/29 00:07:13;;;;;;;6.00;3.70;;;21.10;53.40;;;;;;5071957;28;20219;-70
2024/01/29 00:09:38;;;;;;;4.13;3.30;;;21.10;53.40;;;;;;5072041;28;20625;-69
2024/01/29 00:12:04;;;;;;;3.37;3.07;;;21.10;53.40;;;;;;5071952;28;20274;-69
2024/01/29 00:14:30;;;;;;;5.00;3.40;;;21.10;53.40;;;;;;5072049;28;20194;-70
2024/01/29 00:16:55;;;;;;;3.20;2.90;;;21.10;53.40;;;;;;5071813;28;20806;-70
2024/01/29 00:19:21;;;;;;;4.30;3.00;;;21.10;53.40;;;;;;5071732;28;20178;-70
2024/01/29 00:21:46;;;;;;;4.90;3.10;;;21.10;53.40;;;;;;5071993;28;20661;-70
2024/01/29 00:24:12;;;;;;;3.83;3.20;;;21.10;53.40;;;;;;5071756;28;20253;-70
2024/01/29 00:26:39;;;;;;;3.17;2.70;;;21.00;53.40;;;;;;5053604;28;20171;-70
2024/01/29 00:29:05;;;;;;;3.43;2.90;;;21.10;53.50;;;;;;5053572;28;20177;-70
2024/01/29 00:31:31;;;;;;;3.83;3.40;;;21.10;53.50;;;;;;5071464;28;20426;-70
2024/01/29 00:33:56;;;;;;;3.50;3.03;;;21.00;53.40;;;;;;5071575;28;20405;-70
2024/01/29 00:36:22;;;;;;;3.77;2.93;;;21.00;53.40;;;;;;5071353;28;20356;-70
2024/01/29 00:38:47;;;;;;;3.53;3.23;;;21.00;53.40;;;;;;5071298;28;20174;-70
2024/01/29 00:41:13;;;;;;;3.10;2.80;;;21.00;53.40;;;;;;5071291;28;20205;-70
2024/01/29 00:43:39;;;;;;;3.47;3.00;;;21.00;53.40;;;;;;5071348;28;20181;-70
2024/01/29 00:46:04;;;;;;;4.37;3.30;;;21.00;53.50;;;;;;5071249;28;20704;-70
2024/01/29 00:48:30;;;;;;;5.30;3.40;;;21.00;53.50;;;;;;5071197;28;20703;-70
2024/01/29 00:50:55;;;;;;;4.27;3.40;;;21.00;53.50;;;;;;5071190;28;20251;-70
2024/01/29 00:53:22;;;;;;;3.43;3.00;;;21.00;53.50;;;;;;5071119;28;20179;-70
2024/01/29 00:55:47;;;;;;;2.97;2.67;;;21.00;53.50;;;;;;5071133;28;20229;-70
2024/01/29 00:58:16;;;;;;;3.17;2.60;;;21.00;53.50;;;;;;5071397;28;20412;-70
2024/01/29 01:00:42;;;;;;;3.10;2.80;;;21.00;53.50;;;;;;5070698;28;20186;-70
2024/01/29 01:03:08;;;;;;;2.97;2.77;;;21.00;53.50;;;;;;5071346;28;20458;-70
2024/01/29 01:05:34;;;;;;;2.90;2.70;;;21.00;53.50;;;;;;5070960;28;20178;-70
2024/01/29 01:08:00;;;;;;;4.30;3.43;;;21.00;53.50;;;;;;5070906;28;20435;-70
2024/01/29 01:10:26;;;;;;;3.00;2.80;;;21.00;53.50;;;;;;5070861;28;20428;-70
2024/01/29 01:12:52;;;;;;;3.60;3.30;;;20.90;53.40;;;;;;5070673;28;20181;-69
2024/01/29 01:15:18;;;;;;;3.70;3.17;;;21.00;53.50;;;;;;5070783;28;20445;-70
2024/01/29 01:17:45;;;;;;;3.03;2.73;;;21.00;53.50;;;;;;5070992;28;20178;-70
2024/01/29 01:20:11;;;;;;;3.70;3.40;;;20.90;53.40;;;;;;5070715;28;20428;-70
2024/01/29 01:22:37;;;;;;;4.33;3.20;;;20.90;53.50;;;;;;5070766;28;20983;-70
2024/01/29 01:25:02;;;;;;;2.70;2.50;;;20.90;53.50;;;;;;5070730;28;20428;-69
2024/01/29 01:27:28;;;;;;;2.93;2.70;;;20.90;53.40;;;;;;5070637;28;20816;-70
2024/01/29 01:29:54;;;;;;;3.63;3.30;;;20.90;53.50;;;;;;5070509;28;20443;-70
2024/01/29 01:32:20;;;;;;;3.30;3.00;;;21.00;53.50;;;;;;5070593;28;20174;-69
2024/01/29 01:34:46;;;;;;;3.30;3.00;;;20.90;53.50;;;;;;5070467;28;20531;-70
2024/01/29 01:37:12;;;;;;;4.30;3.00;;;21.00;53.50;;;;;;5070720;28;20166;-70
2024/01/29 01:39:37;;;;;;;2.70;2.50;;;20.90;53.50;;;;;;5070419;28;20166;-70
2024/01/29 01:42:04;;;;;;;3.33;3.03;;;21.00;53.50;;;;;;5070544;28;20178;-70
2024/01/29 01:44:30;;;;;;;3.57;3.10;;;20.90;53.50;;;;;;5070536;28;20179;-69
2024/01/29 01:46:56;;;;;;;3.40;3.10;;;21.00;53.60;;;;;;5070426;28;20951;-70
2024/01/29 01:49:22;;;;;;;2.87;2.57;;;20.90;53.50;;;;;;5070405;28;20416;-69
2024/01/29 01:51:49;;;;;;;3.20;2.90;;;21.00;53.60;;;;;;5070648;28;20904;-70
2024/01/29 01:54:15;;;;;;;2.70;2.50;;;21.00;53.50;;;;;;5070337;28;20497;-69
2024/01/29 01:56:42;;;;;;;2.63;2.40;;;21.00;53.50;;;;;;5070349;28;20424;-70
2024/01/29 01:59:10;;;;;;;3.10;2.80;;;20.90;53.50;;;;;;5070322;28;20405;-70
2024/01/29 02:01:36;;;;;;;3.17;2.87;;;20.90;53.50;;;;;;5070201;28;20433;-70
2024/01/29 02:04:01;;;;;;;4.77;3.10;;;20.90;53.50;;;;;;5070293;28;20416;-68
2024/01/29 02:06:28;;;;;;;2.80;2.50;;;20.90;53.40;;;;;;5070258;28;20185;-70
2024/01/29 02:08:54;;;;;;;2.67;2.33;;;21.00;53.50;;;;;;5070443;28;20998;-70
2024/01/29 02:11:20;;;;;;;3.10;2.80;;;20.90;53.40;;;;;;5070052;28;20472;-70
2024/01/29 02:13:45;;;;;;;2.67;2.37;;;20.90;53.40;;;;;;5071975;28;20513;-70
2024/01/29 02:16:11;;;;;;;2.97;2.70;;;20.90;53.40;;;;;;5073956;28;20206;-70
2024/01/29 02:18:37;;;;;;;2.47;2.27;;;20.90;53.50;;;;;;5074108;28;20530;-70
2024/01/29 02:21:03;;;;;;;2.70;2.37;;;20.90;53.40;;;;;;5074183;28;20194;-70
2024/01/29 02:23:28;;;;;;;3.17;2.87;;;21.00;53.50;;;;;;5055928;28;20444;-70
2024/01/29 02:25:54;;;;;;;3.00;2.70;;;20.90;53.50;;;;;;5074099;28;20847;-69
2024/01/29 02:28:20;;;;;;;3.27;2.97;;;20.90;53.40;;;;;;5074035;28;20178;-70
2024/01/29 02:30:45;;;;;;;3.13;2.77;;;20.90;53.40;;;;;;5055770;28;20194;-70
2024/01/29 02:33:11;;;;;;;3.13;2.17;;;20.90;53.50;;;;;;5055982;28;20174;-70
2024/01/29 02:35:37;;;;;;;3.40;3.10;;;21.00;53.50;;;;;;5073698;28;20568;-69
2024/01/29 02:38:02;;;;;;;3.60;3.27;;;20.90;53.50;;;;;;5073602;28;20171;-69
2024/01/29 02:40:28;;;;;;;2.63;2.43;;;20.90;53.50;;;;;;5073892;28;20557;-70
2024/01/29 02:42:54;;;;;;;3.40;2.80;;;20.90;53.50;;;;;;5073977;28;20174;-70
2024/01/29 02:45:20;;;;;;;3.93;3.10;;;20.90;53.50;;;;;;5073510;28;20554;-70
2024/01/29 02:47:45;;;;;;;3.43;2.73;;;20.90;53.50;;;;;;5073369;28;20415;-70
2024/01/29 02:50:11;;;;;;;2.80;2.60;;;20.90;53.50;;;;;;5073725;28;20202;-70
2024/01/29 02:52:36;;;;;;;2.80;2.40;;;20.90;53.50;;;;;;5073482;28;20257;-70
2024/01/29 02:55:03;;;;;;;3.40;2.97;;;20.90;53.50;;;;;;5055429;28;20206;-69
2024/01/29 02:57:28;;;;;;;2.70;2.50;;;20.90;53.50;;;;;;5074051;28;20202;-70
2024/01/29 02:59:54;;;;;;;3.13;2.83;;;20.90;53.60;;;;;;5055543;28;20977;-70
2024/01/29 03:02:20;;;;;;;2.70;2.50;;;20.90;53.50;;;;;;5073073;28;20181;-70
2024/01/29 03:04:45;;;;;;;2.63;2.40;;;20.90;53.50;;;;;;5073130;28;20181;-70
2024/01/29 03:07:11;;;;;;;3.00;2.70;;;20.90;53.50;;;;;;5073333;28;20595;-70
2024/01/29 03:09:37;;;;;;;3.03;2.73;;;20.90;53.50;;;;;;5073062;28;20170;-69
2024/01/29 03:12:02;;;;;;;3.30;3.00;;;20.90;53.50;;;;;;5072986;28;20227;-70
2024/01/29 03:14:28;;;;;;;2.67;2.47;;;20.90;54.10;;;;;;5072803;28;20205;-70
2024/01/29 03:16:54;;;;;;;2.50;2.30;;;20.90;53.50;;;;;;5073005;28;20665;-70
2024/01/29 03:19:20;;;;;;;3.10;2.60;;;20.90;53.50;;;;;;5072853;28;20182;-70
2024/01/29 03:21:46;;;;;;;2.97;2.67;;;20.90;53.50;;;;;;5072883;28;20538;-70
2024/01/29 03:24:12;;;;;;;3.00;2.70;;;20.90;53.50;;;;;;5072738;28;20411;-70
2024/01/29 03:26:38;;;;;;;2.40;2.20;;;20.90;53.50;;;;;;5072734;28;20205;-70
2024/01/29 03:29:03;;;;;;;2.77;2.40;;;20.90;53.50;;;;;;5072711;28;20288;-70
2024/01/29 03:31:29;;;;;;;3.00;2.63;;;20.90;53.50;;;;;;5072696;28;20210;-70
2024/01/29 03:33:55;;;;;;;2.40;2.20;;;20.90;53.50;;;;;;5072638;28;20669;-70
2024/01/29 03:36:21;;;;;;;4.17;2.77;;;20.90;53.50;;;;;;5072923;28;20696;-69
2024/01/29 03:38:46;;;;;;;3.00;2.37;;;20.90;53.50;;;;;;5072559;28;20405;-70
2024/01/29 03:41:12;;;;;;;2.97;2.50;;;20.90;53.50;;;;;;5072469;28;20198;-70
2024/01/29 03:43:38;;;;;;;3.00;2.70;;;20.90;53.50;;;;;;5054300;28;20178;-70
2024/01/29 03:46:03;;;;;;;2.47;2.20;;;20.90;53.50;;;;;;5072403;28;20175;-71
2024/01/29 03:48:29;;;;;;;2.53;2.20;;;20.90;53.50;;;;;;5072243;28;20174;-70
2024/01/29 03:50:55;;;;;;;2.70;2.50;;;20.90;53.50;;;;;;5072112;28;20198;-69
2024/01/29 03:53:20;;;;;;;2.40;2.20;;;20.90;53.50;;;;;;5054111;28;20315;-70
2024/01/29 03:55:47;;;;;;;2.40;2.20;;;20.90;53.50;;;;;;5072421;28;20255;-70
2024/01/29 03:58:12;;;;;;;3.00;2.50;;;20.90;53.50;;;;;;5072063;28;20162;-70
2024/01/29 04:00:38;;;;;;;2.10;1.90;;;20.90;53.50;;;;;;5071942;28;20432;-70
2024/01/29 04:03:06;;;;;;;2.63;2.43;;;20.90;53.50;;;;;;5071989;28;20177;-70
2024/01/29 04:05:31;;;;;;;2.60;2.37;;;20.90;53.50;;;;;;5072227;28;20946;-70
2024/01/29 04:07:57;;;;;;;2.30;2.10;;;20.90;53.50;;;;;;5080256;28;20416;-70
2024/01/29 04:10:23;;;;;;;2.67;2.40;;;20.90;53.50;;;;;;5091966;28;20227;-70
2024/01/29 04:12:48;;;;;;;2.60;2.23;;;20.90;53.50;;;;;;5092092;28;20226;-69
2024/01/29 04:15:14;;;;;;;2.67;2.47;;;20.90;53.60;;;;;;5091905;28;20190;-69
2024/01/29 04:17:40;;;;;;;3.60;2.87;;;20.80;53.50;;;;;;5091843;28;20182;-70
2024/01/29 04:20:06;;;;;;;2.80;2.60;;;20.80;53.50;;;;;;5091902;28;20199;-68
2024/01/29 04:22:32;;;;;;;3.57;2.57;;;20.80;53.50;;;;;;5091929;28;20201;-70
2024/01/29 04:25:04;;;;;;;2.70;2.50;;;20.80;53.50;;;;;;5092013;28;20496;-70
2024/01/29 04:27:30;;;;;;;3.57;2.40;;;20.80;53.50;;;;;;5092058;28;20396;-70
2024/01/29 04:29:56;;;;;;;2.50;2.30;;;20.80;53.50;;;;;;5091608;28;20439;-70
2024/01/29 04:32:22;;;;;;;2.97;2.40;;;20.80;53.50;;;;;;5091720;28;20408;-70
2024/01/29 04:34:47;;;;;;;2.77;2.50;;;20.80;54.00;;;;;;5091776;28;20683;-70
2024/01/29 04:37:14;;;;;;;2.50;2.30;;;20.80;53.50;;;;;;5073105;28;20173;-70
2024/01/29 04:39:39;;;;;;;2.60;2.40;;;20.80;53.50;;;;;;5091347;28;20166;-69
2024/01/29 04:42:05;;;;;;;2.40;2.10;;;20.80;53.50;;;;;;5091524;28;20411;-70
2024/01/29 04:44:31;;;;;;;2.57;2.37;;;20.90;53.50;;;;;;5091390;28;20252;-70
2024/01/29 04:46:58;;;;;;;2.60;2.20;;;20.80;53.50;;;;;;5091383;28;20498;-70
2024/01/29 04:49:24;;;;;;;2.47;2.10;;;20.80;53.70;;;;;;5091306;28;20964;-70
2024/01/29 04:51:49;;;;;;;2.53;2.27;;;20.80;53.50;;;;;;5091423;28;20404;-70
2024/01/29 04:54:15;;;;;;;2.50;2.17;;;20.80;53.50;;;;;;5091375;28;20260;-70
2024/01/29 04:56:41;;;;;;;3.33;2.53;;;20.80;53.50;;;;;;5091117;28;20189;-70
2024/01/29 04:59:06;;;;;;;2.10;2.00;;;20.80;53.50;;;;;;5091144;28;20651;-70
2024/01/29 05:01:32;;;;;;;2.50;2.10;;;20.80;53.50;;;;;;5091041;28;20197;-70
2024/01/29 05:03:57;;;;;;;2.40;2.20;;;20.80;53.50;;;;;;5091296;28;20165;-70
2024/01/29 05:06:23;;;;;;;2.83;2.20;;;20.80;53.50;;;;;;5090977;28;20174;-70
2024/01/29 05:08:49;;;;;;;2.33;2.13;;;20.90;53.50;;;;;;5091143;28;20257;-70
2024/01/29 05:11:14;;;;;;;2.10;1.90;;;20.80;53.50;;;;;;5091084;28;20564;-70
2024/01/29 05:13:40;;;;;;;2.63;2.43;;;20.90;53.50;;;;;;5091067;28;20212;-69
2024/01/29 05:16:06;;;;;;;1.83;1.73;;;20.90;53.50;;;;;;5090781;28;20267;-70
2024/01/29 05:18:33;;;;;;;2.23;2.03;;;20.90;53.50;;;;;;5090761;28;20257;-69
2024/01/29 05:20:58;;;;;;;2.47;2.23;;;20.90;53.40;;;;;;5090603;28;20435;-70
2024/01/29 05:23:24;;;;;;;2.20;1.83;;;20.90;53.50;;;;;;5090668;28;20902;-69
2024/01/29 05:25:50;;;;;;;2.60;2.30;;;20.90;53.40;;;;;;5090701;28;20463;-70
2024/01/29 05:28:15;;;;;;;1.90;1.80;;;20.90;53.40;;;;;;5090711;28;20203;-70
2024/01/29 05:30:41;;;;;;;3.40;3.07;;;20.90;53.40;;;;;;5090605;28;20580;-70
2024/01/29 05:33:06;;;;;;;2.00;1.80;;;20.90;53.40;;;;;;5072449;28;20178;-69
2024/01/29 05:35:32;;;;;;;2.70;2.37;;;20.90;53.40;;;;;;5090442;28;20280;-70
2024/01/29 05:37:58;;;;;;;3.07;2.77;;;20.90;53.40;;;;;;5090564;28;20166;-70
2024/01/29 05:40:23;;;;;;;2.93;2.73;;;20.90;53.40;;;;;;5090626;28;20193;-70
2024/01/29 05:42:52;;;;;;;2.83;2.50;;;20.90;53.40;;;;;;5090489;28;20174;-68
2024/01/29 05:45:19;;;;;;;3.13;2.20;;;20.90;53.40;;;;;;5072278;28;20230;-70
2024/01/29 05:47:45;;;;;;;2.37;2.17;;;20.90;53.40;;;;;;5089594;28;20424;-69
2024/01/29 05:50:10;;;;;;;2.97;2.70;;;20.90;53.40;;;;;;5090346;28;20439;-69
2024/01/29 05:52:36;;;;;;;2.30;2.10;;;20.90;53.40;;;;;;5090405;28;20212;-69
2024/01/29 05:55:02;;;;;;;2.30;2.10;;;20.90;53.40;;;;;;5090338;28;20224;-69
2024/01/29 05:57:28;;;;;;;2.50;2.30;;;20.90;53.40;;;;;;5072265;28;20174;-68
2024/01/29 05:59:54;;;;;;;1.77;1.63;;;20.90;53.40;;;;;;5090279;28;20435;-69
2024/01/29 06:02:20;;;;;;;2.90;2.43;;;20.90;53.40;;;;;;5090550;28;20898;-69
2024/01/29 06:04:45;;;;;;;1.77;1.67;;;20.90;53.40;;;;;;5072061;28;20427;-68
2024/01/29 06:07:11;;;;;;;2.70;2.47;;;20.90;53.40;;;;;;5090228;28;20170;-68
2024/01/29 06:09:37;;;;;;;2.67;2.17;;;20.90;53.40;;;;;;5090577;28;20532;-68
2024/01/29 06:12:03;;;;;;;2.23;2.03;;;20.90;53.40;;;;;;5090253;28;20177;-67
2024/01/29 06:14:28;;;;;;;3.20;2.23;;;20.90;53.40;;;;;;5090040;28;20169;-68
2024/01/29 06:16:57;;;;;;;2.70;2.50;;;20.90;53.40;;;;;;5089993;28;20431;-68
2024/01/29 06:19:23;;;;;;;2.67;2.20;;;20.90;53.40;;;;;;5090316;28;20190;-70
2024/01/29 06:21:49;;;;;;;2.10;1.90;;;20.90;53.40;;;;;;5090089;28;20464;-69
2024/01/29 06:24:15;;;;;;;3.10;2.67;;;20.90;53.40;;;;;;5090283;28;20411;-69
2024/01/29 06:26:41;;;;;;;2.47;2.27;;;20.90;53.40;;;;;;5089993;28;20519;-69
2024/01/29 06:29:07;;;;;;;2.70;2.30;;;20.90;53.40;;;;;;5071807;28;20166;-68
2024/01/29 06:31:33;;;;;;;2.03;1.87;;;20.90;53.50;;;;;;5089936;28;20434;-69
2024/01/29 06:33:58;;;;;;;2.40;2.20;;;20.90;53.50;;;;;;5089890;28;20270;-69
2024/01/29 06:36:24;;;;;;;2.23;1.93;;;21.00;53.50;;;;;;5090037;28;20196;-70
2024/01/29 06:38:50;;;;;;;2.40;2.20;;;21.00;53.50;;;;;;5089979;28;20173;-69
2024/01/29 06:41:19;;;;;;;2.30;2.10;;;21.00;53.50;;;;;;5089891;28;20723;-69
2024/01/29 06:43:45;;;;;;;2.50;2.30;;;21.00;53.50;;;;;;5089965;28;20671;-69
2024/01/29 06:46:11;;;;;;;2.13;1.93;;;21.10;53.50;;;;;;5089990;28;20446;-69
2024/01/29 06:48:37;;;;;;;1.87;1.63;;;21.10;53.50;;;;;;5090057;28;20212;-68
2024/01/29 06:51:04;;;;;;;2.67;2.17;;;21.10;53.50;;;;;;5089739;28;20194;-68
2024/01/29 06:53:29;;;;;;;2.07;1.87;;;21.10;53.50;;;;;;5089927;28;20507;-69
2024/01/29 06:55:59;;;;;;;2.10;1.90;;;21.10;53.40;;;;;;5089671;28;20916;-68
2024/01/29 06:58:25;;;;;;;2.33;2.13;;;21.10;53.40;;;;;;5089637;28;20170;-69
2024/01/29 07:00:51;;;;;;;2.30;2.10;;;21.10;53.40;;;;;;5093187;28;20431;-67
2024/01/29 07:03:17;;;;;;;2.10;2.00;;;21.20;53.50;;;;;;5093332;28;20400;-67
2024/01/29 07:05:43;;;;;;;2.23;2.03;;;21.20;53.40;;;;;;5093342;28;20410;-69
2024/01/29 07:08:08;;;;;;;1.87;1.53;;;21.20;53.40;;;;;;5093450;28;20415;-69
2024/01/29 07:10:34;;;;;;;2.87;2.30;;;21.20;53.40;;;;;;5093493;28;20204;-68
2024/01/29 07:13:00;;;;;;;2.53;1.90;;;21.20;53.40;;;;;;5074974;28;20208;-68
2024/01/29 07:15:25;;;;;;;2.10;1.90;;;21.20;53.40;;;;;;5092953;28;20189;-69
2024/01/29 07:17:51;;;;;;;2.20;2.00;;;21.20;53.40;;;;;;5092931;28;20205;-69
2024/01/29 07:20:17;;;;;;;1.93;1.60;;;21.20;53.40;;;;;;5074725;28;20680;-69
2024/01/29 07:22:45;;;;;;;2.13;1.83;;;21.20;53.30;;;;;;5093012;28;20173;-69
2024/01/29 07:25:10;;;;;;;2.40;2.10;;;21.20;53.30;;;;;;5093135;28;20246;-71
2024/01/29 07:27:36;;;;;;;2.67;2.43;;;21.30;53.40;;;;;;5092767;28;20412;-69
2024/01/29 07:30:02;;;;;;;2.20;2.00;;;21.30;53.40;;;;;;5092651;28;20631;-71
2024/01/29 07:32:31;;;;;;;2.10;1.90;;;21.30;53.40;;;;;;5092640;28;20174;-71
2024/01/29 07:35:00;;;;;;;2.13;2.00;;;21.30;53.40;;;;;;5092509;28;20815;-69
2024/01/29 07:37:27;;;;;;;2.80;2.50;;;21.30;54.00;;;;;;5092527;28;20411;-69
2024/01/29 07:39:53;;;;;;;3.97;2.63;;;21.30;53.40;;;;;;5074171;28;21039;-70
2024/01/29 07:42:19;;;;;;;2.67;2.40;;;21.30;53.40;;;;;;5092369;28;20412;-71
2024/01/29 07:44:44;;;;;;;2.57;2.37;;;21.30;53.40;;;;;;5092402;28;20180;-71
2024/01/29 07:47:10;;;;;;;3.00;2.53;;;21.30;53.30;;;;;;5092444;28;20265;-70
2024/01/29 07:49:36;;;;;;;6.07;2.70;;;21.30;53.30;;;;;;5092281;28;20227;-70
2024/01/29 07:52:02;;;;;;;2.83;2.50;;;21.30;53.30;;;;;;5092220;28;20181;-70
2024/01/29 07:54:28;;;;;;;3.57;3.27;;;21.30;53.30;;;;;;5092125;28;20181;-70
2024/01/29 07:56:53;;;;;;;4.83;3.40;;;21.30;53.30;;;;;;5092112;28;20408;-69
2024/01/29 07:59:19;;;;;;;4.47;4.00;;;21.30;53.30;;;;;;5092098;28;20201;-70
2024/01/29 08:01:45;;;;;;;4.13;3.70;;;21.30;53.30;;;;;;5091994;28;20189;-71
2024/01/29 08:04:11;;;;;;;5.53;4.00;;;21.30;53.30;;;;;;5092046;28;20248;-71
2024/01/29 08:06:37;;;;;;;4.33;3.93;;;21.30;53.20;;;;;;5073713;28;20609;-70
2024/01/29 08:09:04;;;;;;;4.67;4.23;;;21.30;53.20;;;;;;5092078;28;20416;-70
2024/01/29 08:11:31;;;;;;;4.73;4.23;;;21.30;53.20;;;;;;5090902;28;20301;-70
2024/01/29 08:13:57;;;;;;;4.97;4.47;;;21.30;53.20;;;;;;5092232;28;20984;-70
2024/01/29 08:16:22;;;;;;;5.97;3.97;;;21.30;53.10;;;;;;5091671;28;20512;-71
2024/01/29 08:18:48;;;;;;;6.50;4.17;;;21.30;53.10;;;;;;5092012;28;20816;-71
2024/01/29 08:21:14;;;;;;;6.20;3.93;;;21.30;53.10;;;;;;5091630;28;20194;-70
2024/01/29 08:23:39;;;;;;;4.53;4.13;;;21.30;53.10;;;;;;5091631;28;20181;-70
2024/01/29 08:26:06;;;;;;;5.53;4.97;;;21.30;53.10;;;;;;5091561;28;20185;-70
2024/01/29 08:28:32;;;;;;;3.93;3.53;;;21.30;53.00;;;;;;5091518;28;20643;-70
2024/01/29 08:30:59;;;;;;;4.23;3.83;;;21.30;53.00;;;;;;5091466;28;20518;-70
2024/01/29 08:33:25;;;;;;;5.20;4.27;;;21.30;52.90;;;;;;5091496;28;20173;-70
2024/01/29 08:35:51;;;;;;;6.20;4.37;;;21.30;52.90;;;;;;5073041;28;20468;-70
2024/01/29 08:38:17;;;;;;;4.80;4.30;;;21.30;52.90;;;;;;5091301;28;20537;-71
2024/01/29 08:40:42;;;;;;;5.47;4.90;;;21.30;52.80;;;;;;5091203;28;20201;-70
2024/01/29 08:43:08;;;;;;;4.30;3.90;;;21.30;52.70;;;;;;5091301;28;20169;-70
2024/01/29 08:45:34;;;;;;;6.20;4.50;;;21.30;52.70;;;;;;5091203;28;20652;-70
2024/01/29 08:48:03;;;;;;;4.33;3.93;;;21.30;52.70;;;;;;5091205;28;20182;-69
2024/01/29 08:50:30;;;;;;;5.80;4.67;;;21.30;52.80;;;;;;5091005;28;20450;-71
2024/01/29 08:52:55;;;;;;;5.23;4.70;;;21.30;52.70;;;;;;5091038;28;20410;-71
2024/01/29 08:55:22;;;;;;;6.10;4.07;;;21.30;52.70;;;;;;5072693;28;20459;-71
2024/01/29 08:57:48;;;;;;;6.07;3.80;;;21.30;52.80;;;;;;5090943;28;20166;-69
2024/01/29 09:00:15;;;;;;;4.20;3.80;;;21.30;52.80;;;;;;5090846;28;20424;-70
2024/01/29 09:02:41;;;;;;;4.83;4.33;;;21.30;52.80;;;;;;5090887;28;20169;-70
2024/01/29 09:05:08;;;;;;;4.33;3.93;;;21.30;52.90;;;;;;5091083;28;20412;-71
2024/01/29 09:07:34;;;;;;;4.20;3.70;;;21.30;52.90;;;;;;5085299;28;20544;-71
2024/01/29 09:10:00;;;;;;;4.87;4.00;;;21.30;52.90;;;;;;5062924;28;20857;-71
2024/01/29 09:12:25;;;;;;;4.97;3.97;;;21.30;53.00;;;;;;5079050;28;20443;-71
2024/01/29 09:14:51;;;;;;;5.07;4.53;;;21.30;53.00;;;;;;5062209;28;20219;-70
2024/01/29 09:17:17;;;;;;;3.90;3.50;;;21.30;53.00;;;;;;5062310;28;20221;-70
2024/01/29 09:19:45;;;;;;;5.37;3.77;;;21.30;53.00;;;;;;5081461;28;20193;-68
2024/01/29 09:22:12;;;;;;;6.40;4.40;;;21.30;53.10;;;;;;5079870;28;20192;-71
2024/01/29 09:24:38;;;;;;;4.03;3.30;;;21.30;53.10;;;;;;5079397;28;20822;-71
2024/01/29 09:27:03;;;;;;;4.00;3.60;;;21.30;53.10;;;;;;5080931;28;20415;-69
2024/01/29 09:29:29;;;;;;;3.97;3.57;;;21.30;53.10;;;;;;5079297;28;20166;-71
2024/01/29 09:31:54;;;;;;;4.83;4.00;;;21.30;53.10;;;;;;5079820;28;20174;-71
2024/01/29 09:34:22;;;;;;;4.00;3.60;;;21.30;53.10;;;;;;5062611;28;20660;-71
2024/01/29 09:36:48;;;;;;;4.40;3.40;;;21.30;53.10;;;;;;5079167;28;20260;-71
2024/01/29 09:39:13;;;;;;;4.90;3.60;;;21.30;53.10;;;;;;5080057;28;20419;-70
2024/01/29 09:41:39;;;;;;;3.70;3.33;;;21.30;53.20;;;;;;5080494;28;20857;-69
2024/01/29 09:44:06;;;;;;;4.13;3.73;;;21.30;53.20;;;;;;5078423;28;20274;-71
2024/01/29 09:46:36;;;;;;;3.50;3.20;;;21.30;53.10;;;;;;5079894;28;20581;-68
2024/01/29 09:49:02;;;;;;;4.00;3.53;;;21.30;53.20;;;;;;5080702;28;20496;-69
2024/01/29 09:51:29;;;;;;;4.90;3.87;;;21.30;53.20;;;;;;5060747;28;20846;-67
2024/01/29 09:53:55;;;;;;;5.30;2.93;;;21.30;53.10;;;;;;5079416;28;20422;-70
2024/01/29 09:56:21;;;;;;;6.80;4.27;;;21.30;53.10;;;;;;5080572;28;20835;-70
2024/01/29 09:58:46;;;;;;;3.80;3.40;;;21.30;53.10;;;;;;5078497;28;20189;-67
2024/01/29 10:01:15;;;;;;;5.03;3.70;;;21.30;53.10;;;;;;5079716;28;20200;-70
2024/01/29 10:03:41;;;;;;;4.00;3.57;;;21.30;53.10;;;;;;5080633;28;20220;-69
2024/01/29 10:06:07;;;;;;;4.63;4.23;;;21.30;53.10;;;;;;5078780;28;20434;-70
2024/01/29 10:08:33;;;;;;;3.70;3.20;;;21.30;53.20;;;;;;5079636;28;20407;-70
2024/01/29 10:10:59;;;;;;;3.70;3.27;;;21.30;53.10;;;;;;5080204;28;20618;-69
2024/01/29 10:13:25;;;;;;;3.93;3.53;;;21.30;53.10;;;;;;5078397;28;20420;-70
2024/01/29 10:15:53;;;;;;;4.13;3.23;;;21.30;53.10;;;;;;5079714;28;20753;-70
2024/01/29 10:18:19;;;;;;;4.77;3.63;;;21.30;53.10;;;;;;5080278;28;20166;-70
2024/01/29 10:20:45;;;;;;;4.10;3.70;;;21.30;53.10;;;;;;5078292;28;20459;-69
2024/01/29 10:23:11;;;;;;;4.53;3.60;;;21.30;53.10;;;;;;5079727;28;20166;-70
2024/01/29 10:25:39;;;;;;;3.80;3.43;;;21.30;53.10;;;;;;5080023;28;20408;-69
2024/01/29 10:28:11;;;;;;;5.10;4.10;;;21.30;53.10;;;;;;5075030;28;20225;-70
2024/01/29 10:30:37;;;;;;;4.47;3.20;;;21.30;53.10;;;;;;5079742;28;20424;-68
2024/01/29 10:33:03;;;;;;;5.63;3.40;;;21.30;53.10;;;;;;5070239;28;20420;-70
2024/01/29 10:35:28;;;;;;;3.70;3.33;;;21.30;53.20;;;;;;5072498;28;20452;-70
2024/01/29 10:38:01;;;;;;;3.90;3.53;;;21.30;53.20;;;;;;5073365;28;20265;-70
2024/01/29 10:40:28;;;;;;;4.50;4.10;;;21.30;53.20;;;;;;5073507;28;20273;-70
2024/01/29 10:42:56;;;;;;;4.47;3.83;;;21.30;53.20;;;;;;5073527;28;20416;-70
2024/01/29 10:45:23;;;;;;;5.17;3.37;;;21.30;53.20;;;;;;5073562;28;20511;-70
2024/01/29 10:47:52;;;;;;;3.37;3.07;;;21.30;53.10;;;;;;5073479;28;21044;-69
2024/01/29 10:50:19;;;;;;;4.10;3.30;;;21.20;53.00;;;;;;5073330;28;20432;-68
2024/01/29 10:52:48;;;;;;;4.17;3.13;;;21.20;53.10;;;;;;5073241;28;20420;-67
2024/01/29 10:55:15;;;;;;;3.87;3.50;;;21.20;53.10;;;;;;5073814;28;20872;-69
2024/01/29 10:57:48;;;;;;;3.70;3.30;;;21.20;53.10;;;;;;5073036;28;20408;-68
2024/01/29 11:00:19;;;;;;;4.30;3.90;;;21.20;53.10;;;;;;5073092;28;20847;-69
2024/01/29 11:02:45;;;;;;;4.30;3.47;;;21.20;53.20;;;;;;5073095;28;20436;-68
2024/01/29 11:05:13;;;;;;;4.30;3.50;;;21.20;53.10;;;;;;5073243;28;20423;-68
2024/01/29 11:07:42;;;;;;;4.10;3.70;;;21.20;53.20;;;;;;5073043;28;20416;-68
2024/01/29 11:10:22;;;;;;;4.10;3.50;;;21.20;53.20;;;;;;5072969;28;20436;-70
2024/01/29 11:12:54;;;;;;;4.13;3.50;;;21.20;53.70;;;;;;5073092;28;20465;-67
2024/01/29 11:15:20;;;;;;;4.37;3.33;;;21.20;53.20;;;;;;5072808;28;20448;-69
2024/01/29 11:17:45;;;;;;;3.53;3.23;;;21.20;53.20;;;;;;5072767;28;20990;-68
2024/01/29 11:20:20;;;;;;;4.43;3.27;;;21.20;53.20;;;;;;5072787;28;20579;-69
2024/01/29 11:22:57;;;;;;;3.97;3.57;;;21.20;53.20;;;;;;5072649;28;20252;-68
2024/01/29 11:25:22;;;;;;;4.30;3.83;;;21.20;53.20;;;;;;5072741;28;20762;-68
2024/01/29 11:27:49;;;;;;;3.33;2.90;;;21.20;53.20;;;;;;5072724;28;20420;-67
2024/01/29 11:30:16;;;;;;;3.77;3.10;;;21.20;53.20;;;;;;5072593;28;20248;-69
2024/01/29 11:32:41;;;;;;;3.93;3.60;;;21.20;53.30;;;;;;5072525;28;21241;-68
2024/01/29 11:35:30;;;;;;;4.47;3.70;;;21.20;53.30;;;;;;5072604;28;20558;-68
2024/01/29 11:38:08;;;;;;;3.57;3.23;;;21.20;53.30;;;;;;5072841;28;20162;-69
2024/01/29 11:40:41;;;;;;;3.20;2.87;;;21.20;53.30;;;;;;5072392;28;20443;-68
2024/01/29 11:43:22;;;;;;;3.97;3.57;;;21.20;53.30;;;;;;5072521;28;20393;-67
2024/01/29 11:45:49;;;;;;;2.77;2.47;;;21.20;53.30;;;;;;5071221;28;20412;-69
2024/01/29 11:48:20;;;;;;;3.43;3.00;;;21.20;53.30;;;;;;5072324;28;20409;-68
2024/01/29 11:50:51;;;;;;;3.43;3.13;;;21.20;53.30;;;;;;5072201;28;20511;-68
2024/01/29 11:53:23;;;;;;;3.53;3.20;;;21.20;53.30;;;;;;5072230;28;20826;-66
2024/01/29 11:55:49;;;;;;;4.93;2.87;;;21.20;53.30;;;;;;5054109;28;20495;-68
2024/01/29 11:58:19;;;;;;;3.13;2.83;;;21.20;53.30;;;;;;5072226;28;20443;-68
2024/01/29 12:00:46;;;;;;;3.10;2.90;;;21.20;53.30;;;;;;5072095;28;20294;-68
2024/01/29 12:03:17;;;;;;;4.20;3.50;;;21.20;53.30;;;;;;5072000;28;20408;-69
2024/01/29 12:05:44;;;;;;;3.70;3.40;;;21.20;53.20;;;;;;5072018;28;20404;-69
2024/01/29 12:08:17;;;;;;;4.90;3.57;;;21.20;53.20;;;;;;5071968;28;20420;-69
2024/01/29 12:10:43;;;;;;;5.73;3.40;;;21.20;53.20;;;;;;5071928;28;20494;-69
2024/01/29 12:13:16;;;;;;;2.90;2.70;;;21.20;53.20;;;;;;5071915;28;20449;-68
2024/01/29 12:15:42;;;;;;;3.30;2.93;;;21.20;53.20;;;;;;5071841;28;20476;-71
2024/01/29 12:18:20;;;;;;;6.20;4.10;;;21.20;53.20;;;;;;5053919;28;20991;-70
2024/01/29 12:20:47;;;;;;;3.60;3.30;;;21.20;53.30;;;;;;5071470;28;20440;-68
2024/01/29 12:23:13;;;;;;;3.90;2.57;;;21.20;53.30;;;;;;5071760;28;21245;-67
2024/01/29 12:25:39;;;;;;;4.00;2.80;;;21.20;53.30;;;;;;5071623;28;20412;-68
2024/01/29 12:28:09;;;;;;;4.20;3.30;;;21.20;53.30;;;;;;5071733;28;20903;-68
2024/01/29 12:30:35;;;;;;;3.33;2.77;;;21.20;53.30;;;;;;5071452;28;20781;-69
2024/01/29 12:33:02;;;;;;;5.70;3.90;;;21.20;53.30;;;;;;5071407;28;20413;-68
2024/01/29 12:35:29;;;;;;;3.77;3.37;;;21.10;53.20;;;;;;5071173;28;20517;-69
2024/01/29 12:38:08;;;;;;;3.10;2.80;;;21.20;53.30;;;;;;5071392;28;20412;-68
2024/01/29 12:40:34;;;;;;;6.27;3.00;;;21.20;53.30;;;;;;5071477;28;20501;-68
2024/01/29 12:43:01;;;;;;;2.63;2.43;;;21.20;53.30;;;;;;5071092;28;20409;-69
2024/01/29 12:45:27;;;;;;;3.43;3.13;;;21.10;53.30;;;;;;5071465;28;20415;-67